Carlsbad, California
Current Conditions -  °F | °C
As of 7:52 AM on Friday 24 Oct 2014 (Local Time) from KOKB Reporting Station
Clear Clear  
Wind Chill: 53°   Ceiling: Unl
Heat Index: 53°   Visibility: 10mi
Dew Point: 47°   Wind: 0mph
Humidity: 80%   Direction: NA
Pressure: 29.97"   Gusts: NA
Location:  33.17°N, 117.33°W
Report Text: KOKB 241452Z AUTO 00000KT 10SM CLR 12/08 A2997 RMK AO2 SLP150 T01170083 53006
Loading
Personal Weather Stations






























Interactive Weather Map
Tropical Storm Tracking
New forecast layout! Learn more

10-Day Weather Forecast

Advertisements
Track Severe Weather on mobile